Urb La Rosaleda, Puerto Rico
Current Conditions -  °F | °C
As of 3:56 PM on Monday 22 Dec 2014 (Local Time) from TJSJ Reporting Station
Scattered Clouds Scattered Clouds  
Wind Chill: 83°   Ceiling: Unl
Heat Index: 89°   Visibility: 10mi
Dew Point: 74°   Wind: 14mph
Humidity: 74%   Direction: 50°NE
Pressure: 29.97"   Gusts: NA
Location:  18.4519°N, 66.1817°W
Report Text: TJSJ 221956Z 05012KT 10SM FEW030 SCT065 28/23 A2997 RMK AO2 SLP148 VCSH NE T02830233
Loading
Personal Weather Stations






























Interactive Weather Map New forecast layout! Learn more

10-Day Weather Forecast

Advertisements
Track Severe Weather on mobile